createdAt,value
2022-11-14T00:01:07.736Z,9.09
2022-11-14T00:04:32.975Z,9.07
2022-11-14T00:07:58.188Z,9.1
2022-11-14T00:11:23.517Z,9.09
2022-11-14T00:14:48.623Z,9.08
2022-11-14T00:18:13.852Z,9.13
2022-11-14T00:21:39.060Z,9.15
2022-11-14T00:25:04.289Z,9.17
2022-11-14T00:28:29.950Z,9.15
2022-11-14T00:31:54.766Z,9.12
2022-11-14T00:35:19.998Z,9.13
2022-11-14T00:38:45.238Z,9.13
2022-11-14T00:42:10.460Z,9.15
2022-11-14T00:45:35.825Z,9.15
2022-11-14T00:49:00.931Z,9.14
2022-11-14T00:52:26.132Z,9.09
2022-11-14T00:55:51.344Z,9.09
2022-11-14T00:59:16.553Z,9.06
2022-11-14T01:02:41.866Z,9.04
2022-11-14T01:06:06.967Z,9
2022-11-14T01:09:32.306Z,8.98
2022-11-14T01:12:57.453Z,8.94
2022-11-14T01:16:22.704Z,8.89
2022-11-14T01:19:48.040Z,8.87
2022-11-14T01:23:13.118Z,8.87
2022-11-14T01:26:38.334Z,8.88
2022-11-14T01:30:03.547Z,8.89
2022-11-14T01:33:28.758Z,8.88
2022-11-14T01:36:54.078Z,8.81
2022-11-14T01:40:19.178Z,8.78
2022-11-14T01:43:44.410Z,8.76
2022-11-14T01:47:09.632Z,8.78
2022-11-14T01:50:34.905Z,8.8
2022-11-14T01:54:00.252Z,8.8
2022-11-14T01:57:25.366Z,8.8
2022-11-14T02:00:50.587Z,8.84
2022-11-14T02:04:15.799Z,8.85
2022-11-14T02:07:41.051Z,8.85
2022-11-14T02:11:06.395Z,8.83
2022-11-14T02:14:31.491Z,8.84
2022-11-14T02:17:56.696Z,8.86
2022-11-14T02:21:21.937Z,8.88
2022-11-14T02:24:47.171Z,8.89
2022-11-14T02:28:12.510Z,8.9
2022-11-14T02:31:37.621Z,8.94
2022-11-14T02:35:02.842Z,9
2022-11-14T02:38:28.348Z,9.03
2022-11-14T02:41:53.276Z,9.01
2022-11-14T02:45:18.623Z,9.03
2022-11-14T02:48:43.735Z,9.04
2022-11-14T02:52:08.931Z,9.01
2022-11-14T02:55:34.171Z,8.98
2022-11-14T02:58:59.393Z,8.98
2022-11-14T03:02:24.741Z,8.96
2022-11-14T03:05:49.837Z,8.93
2022-11-14T03:09:15.059Z,8.91
2022-11-14T03:12:40.281Z,8.89
2022-11-14T03:16:05.502Z,8.88
2022-11-14T03:19:30.844Z,8.86
2022-11-14T03:22:55.948Z,8.85
2022-11-14T03:26:21.197Z,8.81
2022-11-14T03:29:46.432Z,8.73
2022-11-14T03:33:11.687Z,8.61
2022-11-14T03:36:37.071Z,8.53
2022-11-14T03:40:02.191Z,8.46
2022-11-14T03:43:27.415Z,8.4
2022-11-14T03:46:52.632Z,8.33
2022-11-14T03:50:17.899Z,8.31
2022-11-14T03:53:43.231Z,8.35
2022-11-14T03:57:08.350Z,8.34
2022-11-14T04:00:33.599Z,8.33
2022-11-14T04:03:58.839Z,8.35
2022-11-14T04:07:24.100Z,8.34
2022-11-14T04:10:49.280Z,8.3
2022-11-14T04:14:14.465Z,8.3
2022-11-14T04:17:40.148Z,8.29
2022-11-14T04:21:04.894Z,8.27
2022-11-14T04:24:30.115Z,8.28
2022-11-14T04:27:55.517Z,8.33
2022-11-14T04:31:20.544Z,8.38
2022-11-14T04:34:45.831Z,8.39
2022-11-14T04:38:11.065Z,8.41
2022-11-14T04:41:36.394Z,8.41
2022-11-14T04:45:01.786Z,8.38
2022-11-14T04:48:26.981Z,8.36
2022-11-14T04:51:52.051Z,8.36
2022-11-14T04:55:17.299Z,8.41
2022-11-14T04:58:42.557Z,8.48
2022-11-14T05:02:07.792Z,8.52
2022-11-14T05:05:33.787Z,8.53
2022-11-14T05:08:58.246Z,8.52
2022-11-14T05:12:23.550Z,8.51
2022-11-14T05:15:48.818Z,8.47
2022-11-14T05:19:14.140Z,8.48
2022-11-14T05:22:39.378Z,8.53
2022-11-14T05:26:04.670Z,8.49
2022-11-14T05:29:29.898Z,8.47
2022-11-14T05:32:55.121Z,8.5
2022-11-14T05:36:20.408Z,8.51
2022-11-14T05:39:45.617Z,8.51
2022-11-14T05:43:10.881Z,8.52
2022-11-14T05:46:36.107Z,8.53
2022-11-14T05:50:01.325Z,8.49
2022-11-14T05:53:26.561Z,8.4
2022-11-14T05:56:51.769Z,8.34
2022-11-14T06:00:16.982Z,8.3
2022-11-14T06:03:42.191Z,8.3
2022-11-14T06:07:07.503Z,8.34
2022-11-14T06:10:32.722Z,8.31
2022-11-14T06:13:57.948Z,8.32
2022-11-14T06:17:23.161Z,8.32
2022-11-14T06:20:48.427Z,8.32
2022-11-14T06:24:13.712Z,8.36
2022-11-14T06:27:38.951Z,8.38
2022-11-14T06:31:04.174Z,8.44
2022-11-14T06:34:29.459Z,8.49
2022-11-14T06:37:54.724Z,8.54
2022-11-14T06:41:19.985Z,8.59
2022-11-14T06:44:45.222Z,8.64
2022-11-14T06:48:10.412Z,8.68
2022-11-14T06:51:35.647Z,8.69
2022-11-14T06:55:00.855Z,8.69
2022-11-14T06:58:26.627Z,8.73
2022-11-14T07:01:51.846Z,8.77
2022-11-14T07:05:17.076Z,8.81
2022-11-14T07:08:42.363Z,8.83
2022-11-14T07:12:07.603Z,8.85
2022-11-14T07:15:32.804Z,8.88
2022-11-14T07:18:58.141Z,8.89
2022-11-14T07:22:23.422Z,8.9
2022-11-14T07:25:48.638Z,8.91
2022-11-14T07:29:13.881Z,8.94
2022-11-14T07:32:39.098Z,8.97
2022-11-14T07:36:04.343Z,9.01
2022-11-14T07:39:29.547Z,9.08
2022-11-14T07:42:54.760Z,9.19
2022-11-14T07:46:19.971Z,9.17
2022-11-14T07:49:45.189Z,9.17
2022-11-14T07:53:10.431Z,9.13
2022-11-14T07:56:35.638Z,9.05
2022-11-14T08:00:00.845Z,9.02
2022-11-14T08:03:26.107Z,8.98
2022-11-14T08:06:51.376Z,9.02
2022-11-14T08:10:16.621Z,9.04
2022-11-14T08:13:41.843Z,9.07
2022-11-14T08:17:07.068Z,9.08
2022-11-14T08:20:32.285Z,9.13
2022-11-14T08:23:57.512Z,9.16
2022-11-14T08:27:22.762Z,9.19
2022-11-14T08:30:47.963Z,9.26
2022-11-14T08:34:13.202Z,9.33
2022-11-14T08:37:38.422Z,9.39
2022-11-14T08:41:03.645Z,9.47
2022-11-14T08:44:28.907Z,9.55
2022-11-14T08:47:54.110Z,9.6
2022-11-14T08:51:19.317Z,9.68
2022-11-14T08:54:44.614Z,9.77
2022-11-14T08:58:09.828Z,9.84
2022-11-14T09:01:35.073Z,9.93
2022-11-14T09:05:00.380Z,10
2022-11-14T09:08:25.496Z,10.02
2022-11-14T09:11:50.718Z,10.13
2022-11-14T09:15:15.963Z,10.19
2022-11-14T09:18:41.195Z,10.22
2022-11-14T09:22:06.403Z,10.25
2022-11-14T09:25:31.626Z,10.3
2022-11-14T09:28:56.865Z,10.38
2022-11-14T09:32:22.105Z,10.49
2022-11-14T09:35:47.343Z,10.57
2022-11-14T09:39:12.528Z,10.6
2022-11-14T09:42:37.775Z,10.61
2022-11-14T09:46:02.982Z,10.66
2022-11-14T09:49:28.294Z,10.75
2022-11-14T09:52:53.634Z,10.87
2022-11-14T09:56:18.813Z,11.01
2022-11-14T09:59:44.097Z,11.12
2022-11-14T10:03:09.319Z,11.22
2022-11-14T10:06:34.535Z,11.25
2022-11-14T10:09:59.800Z,11.29
2022-11-14T10:13:25.040Z,11.37
2022-11-14T10:16:50.266Z,11.48
2022-11-14T10:20:15.496Z,11.64
2022-11-14T10:23:40.717Z,11.75
2022-11-14T10:27:06.034Z,11.87
2022-11-14T10:30:31.264Z,11.99
2022-11-14T10:33:56.476Z,12.05
2022-11-14T10:37:21.733Z,12.2
2022-11-14T10:40:46.951Z,12.32
2022-11-14T10:44:12.207Z,12.39
2022-11-14T10:47:37.411Z,12.51
2022-11-14T10:51:02.625Z,12.6
2022-11-14T10:54:27.867Z,12.66
2022-11-14T10:57:53.110Z,12.72
2022-11-14T11:01:18.405Z,12.81
2022-11-14T11:04:43.546Z,12.91
2022-11-14T11:08:36.530Z,13.02
2022-11-14T11:11:33.998Z,13.16
2022-11-14T11:14:59.225Z,13.27
2022-11-14T11:18:24.488Z,13.37
2022-11-14T11:21:49.790Z,13.5
2022-11-14T11:25:14.869Z,13.62
2022-11-14T11:28:40.101Z,13.72
2022-11-14T11:32:05.328Z,13.81
2022-11-14T11:35:30.600Z,13.88
2022-11-14T11:38:55.827Z,13.92
2022-11-14T11:42:21.058Z,13.94
2022-11-14T11:45:46.272Z,13.95
2022-11-14T11:49:11.579Z,13.97
2022-11-14T11:52:36.858Z,14.03
2022-11-14T11:56:02.050Z,14.07
2022-11-14T11:59:27.280Z,14.14
2022-11-14T12:02:52.613Z,14.21
2022-11-14T12:06:17.741Z,14.31
2022-11-14T12:10:09.118Z,14.37
2022-11-14T12:13:08.227Z,14.43
2022-11-14T12:16:33.506Z,14.48
2022-11-14T12:19:58.720Z,14.53
2022-11-14T12:23:23.999Z,14.55
2022-11-14T12:26:49.256Z,14.59
2022-11-14T12:30:14.557Z,14.61
2022-11-14T12:33:39.713Z,14.65
2022-11-14T12:37:05.005Z,14.68
2022-11-14T12:40:30.154Z,14.7
2022-11-14T12:43:55.483Z,14.7
2022-11-14T12:47:20.605Z,14.7
2022-11-14T12:50:45.859Z,14.71
2022-11-14T12:54:11.025Z,14.7
2022-11-14T12:57:36.277Z,14.7
2022-11-14T13:01:01.542Z,14.7
2022-11-14T13:04:26.720Z,14.67
2022-11-14T13:07:51.949Z,14.65
2022-11-14T13:11:17.210Z,14.66
2022-11-14T13:14:42.505Z,14.69
2022-11-14T13:18:07.760Z,14.74
2022-11-14T13:21:32.983Z,14.76
2022-11-14T13:24:58.201Z,14.78
2022-11-14T13:28:25.036Z,14.77
2022-11-14T13:31:48.731Z,14.79
2022-11-14T13:35:13.951Z,14.84
2022-11-14T13:38:39.150Z,14.87
2022-11-14T13:42:04.373Z,14.85
2022-11-14T13:45:29.598Z,14.82
2022-11-14T13:48:54.881Z,14.77
2022-11-14T13:52:20.134Z,14.72
2022-11-14T13:55:45.372Z,14.67
2022-11-14T13:59:10.604Z,14.63
2022-11-14T14:02:35.832Z,14.6
2022-11-14T14:06:05.193Z,14.54
2022-11-14T14:09:26.452Z,14.46
2022-11-14T14:12:51.537Z,14.41
2022-11-14T14:16:16.806Z,14.36
2022-11-14T14:19:42.055Z,14.29
2022-11-14T14:23:07.871Z,14.25
2022-11-14T14:26:33.137Z,14.2
2022-11-14T15:03:07.053Z,11.44
2022-11-14T15:06:32.327Z,12.35
2022-11-14T15:09:57.618Z,12.52
2022-11-14T15:13:22.923Z,12.67
2022-11-14T15:16:48.194Z,12.81
2022-11-14T15:20:13.513Z,12.89
2022-11-14T15:23:38.797Z,12.96
2022-11-14T15:27:04.087Z,12.98
2022-11-14T15:30:29.373Z,12.98
2022-11-14T15:33:54.658Z,12.96
2022-11-14T15:37:19.932Z,12.94
2022-11-14T15:40:45.252Z,12.89
2022-11-14T15:44:10.556Z,12.84
2022-11-14T15:47:35.844Z,12.8
2022-11-14T15:51:01.137Z,12.71
2022-11-14T15:54:26.424Z,12.63
2022-11-14T15:58:00.841Z,12.55
2022-11-14T16:01:17.099Z,12.45
2022-11-14T16:04:47.202Z,12.36
2022-11-14T16:08:07.591Z,12.25
2022-11-14T16:11:32.970Z,12.13
2022-11-14T16:14:58.277Z,11.99
2022-11-14T16:18:23.603Z,11.86
2022-11-14T16:21:48.879Z,11.76
2022-11-14T16:25:14.168Z,11.69
2022-11-14T16:28:39.450Z,11.62
2022-11-14T16:32:04.685Z,11.57
2022-11-14T16:35:30.041Z,11.54
2022-11-14T16:38:55.275Z,11.49
2022-11-14T16:42:20.573Z,11.44
2022-11-14T16:45:45.856Z,11.34
2022-11-14T16:49:11.098Z,11.28
2022-11-14T16:52:36.400Z,11.21
2022-11-14T16:56:01.675Z,11.17
2022-11-14T16:59:26.964Z,11.16
2022-11-14T17:02:52.278Z,11.12
2022-11-14T17:06:17.514Z,11.1
2022-11-14T17:09:42.837Z,11.09
2022-11-14T17:13:08.115Z,11.05
2022-11-14T17:16:33.392Z,10.98
2022-11-14T17:19:58.704Z,10.92
2022-11-14T17:23:23.945Z,10.87
2022-11-14T17:26:49.226Z,10.85
2022-11-14T17:30:14.497Z,10.85
2022-11-14T17:33:39.884Z,10.84
2022-11-14T17:37:05.168Z,10.83
2022-11-14T17:40:30.417Z,10.8
2022-11-14T17:43:55.688Z,10.81
2022-11-14T17:47:21.115Z,10.82
2022-11-14T17:50:46.314Z,10.79
2022-11-14T17:54:11.603Z,10.77
2022-11-14T17:57:36.854Z,10.77
2022-11-14T18:01:02.189Z,10.78
2022-11-14T18:04:27.530Z,10.77
2022-11-14T18:07:52.852Z,10.77
2022-11-14T18:11:18.186Z,10.77
2022-11-14T18:14:43.534Z,10.75
2022-11-14T18:18:08.850Z,10.75
2022-11-14T18:21:34.197Z,10.75
2022-11-14T18:25:02.282Z,10.75
2022-11-14T18:28:24.889Z,10.75
2022-11-14T18:31:50.138Z,10.75
2022-11-14T18:35:15.462Z,10.72
2022-11-14T18:38:40.763Z,10.72
2022-11-14T18:42:06.061Z,10.69
2022-11-14T18:45:31.404Z,10.65
2022-11-14T18:48:56.686Z,10.6
2022-11-14T18:52:21.969Z,10.6
2022-11-14T18:55:47.280Z,10.64
2022-11-14T18:59:12.624Z,10.66
2022-11-14T19:02:37.966Z,10.68
2022-11-14T19:06:03.252Z,10.67
2022-11-14T19:09:28.555Z,10.66
2022-11-14T19:12:53.860Z,10.65
2022-11-14T19:16:19.162Z,10.64
2022-11-14T19:19:44.519Z,10.64
2022-11-14T19:23:09.801Z,10.62
2022-11-14T19:26:35.098Z,10.6
2022-11-14T19:30:00.437Z,10.6
2022-11-14T19:33:25.774Z,10.61
2022-11-14T19:36:59.739Z,10.63
2022-11-14T19:40:17.283Z,10.65
2022-11-14T19:43:42.679Z,10.64
2022-11-14T19:47:08.036Z,10.64
2022-11-14T19:50:33.319Z,10.62
2022-11-14T19:53:58.656Z,10.6
2022-11-14T19:57:23.933Z,10.6
2022-11-14T20:00:49.255Z,10.55
2022-11-14T20:04:14.580Z,10.53
2022-11-14T20:07:39.845Z,10.53
2022-11-14T20:11:05.169Z,10.53
2022-11-14T20:14:30.424Z,10.5
2022-11-14T20:17:55.691Z,10.46
2022-11-14T20:21:21.019Z,10.43
2022-11-14T20:24:46.314Z,10.39
2022-11-14T20:28:11.621Z,10.38
2022-11-14T20:31:36.931Z,10.35
2022-11-14T20:35:02.255Z,10.34
2022-11-14T20:38:27.559Z,10.3
2022-11-14T20:41:52.920Z,10.29
2022-11-14T20:45:18.364Z,10.28
2022-11-14T20:48:43.654Z,10.25
2022-11-14T20:52:08.879Z,10.22
2022-11-14T20:55:34.092Z,10.2
2022-11-14T20:58:59.365Z,10.16
2022-11-14T21:02:24.612Z,10.11
2022-11-14T21:05:49.882Z,10.05
2022-11-14T21:09:15.109Z,10
2022-11-14T21:12:41.182Z,10
2022-11-14T21:16:05.641Z,9.97
2022-11-14T21:19:30.951Z,9.98
2022-11-14T21:22:56.167Z,9.99
2022-11-14T21:26:21.458Z,10.02
2022-11-14T21:29:46.696Z,10.05
2022-11-14T21:33:11.971Z,10.12
2022-11-14T21:36:44.695Z,10.17
2022-11-14T21:40:02.516Z,10.3
2022-11-14T21:43:27.816Z,10.41
2022-11-14T21:46:53.025Z,10.34
2022-11-14T21:50:18.298Z,10.09
2022-11-14T21:53:43.586Z,9.89
2022-11-14T21:57:10.349Z,9.77
2022-11-14T22:00:34.064Z,9.7
2022-11-14T22:03:59.317Z,9.7
2022-11-14T22:07:24.606Z,9.7
2022-11-14T22:10:49.908Z,9.7
2022-11-14T22:14:15.123Z,9.72
2022-11-14T22:17:40.373Z,9.79
2022-11-14T22:21:05.646Z,9.84
2022-11-14T22:24:30.876Z,9.93
2022-11-14T22:27:56.198Z,9.98
2022-11-14T22:31:21.459Z,10.02
2022-11-14T22:34:46.717Z,10.08
2022-11-14T22:38:11.978Z,10.18
2022-11-14T22:41:37.258Z,10.29
2022-11-14T22:45:02.523Z,10.41
2022-11-14T22:48:27.712Z,10.49
2022-11-14T22:51:52.945Z,10.58
2022-11-14T22:55:18.534Z,10.65
2022-11-14T22:58:43.391Z,10.71
2022-11-14T23:02:08.627Z,10.79
2022-11-14T23:05:33.834Z,10.85
2022-11-14T23:08:59.182Z,10.87
2022-11-14T23:12:24.334Z,10.91
2022-11-14T23:15:49.622Z,10.97
2022-11-14T23:19:14.926Z,11.04
2022-11-14T23:22:40.124Z,11.05
2022-11-14T23:26:05.383Z,11.03
2022-11-14T23:29:30.683Z,11.03
2022-11-14T23:32:55.906Z,11.03
2022-11-14T23:36:21.231Z,11.06
2022-11-14T23:39:46.511Z,11.07
2022-11-14T23:43:11.780Z,11.09
2022-11-14T23:46:37.054Z,11.12
2022-11-14T23:50:02.308Z,11.13
2022-11-14T23:53:27.694Z,11.11
2022-11-14T23:56:52.887Z,11.1
